Canaseraga, NY (14822)

6:42 PM EST on February 26, 2015 (GMT -0500)
Dalton | Change Station
CLOSE
Current Station
Personal Weather Station
Location: Dalton, NY
Elevation: 1913 ft
Nearby Weather Stations

Elev 1913 ft 42.51 °N, 77.92 °W | Updated 10 minutes ago

Overcast
Overcast
6.7 °F
Feels Like 7 °F
N
0.0
Wind Variable Wind from NNE
Gusts 2.0 mph

Today
High -- | Low -- °F
--% Chance of Precip.
Yesterday
High -- | Low -- °F
Precip. -- in
6:51 AM 5:56 PM
Waxing Gibbous, 63% visible
Pressure 30.09 in
Visibility 8.0 miles
Clouds Overcast 4000 ft
Windchill 7 °F
Dew Point 4 °F
Humidity 89%
Rainfall 0.00 in
Snow Depth Not available.
UV 0 out of 12
Pollen .40 out of 12
Air Quality Not available.
Flu Activity Not available.
METAR KDSV 262254Z AUTO 32009KT 8SM OVC040 M11/M14 A3009 RMK AO2 SNE47 SLPNO P0000 T11111144

More Conditions Fewer Conditions

Pressure 30.09 in
Visibility 8.0 miles
Clouds Overcast 4000 ft
Windchill 7 °F
Dew Point 4 °F
Humidity 89%
Rainfall 0.00 in
Snow Depth Not available.
UV 0 out of 12
Pollen .40 out of 12
Air Quality Not available.
Flu Activity Not available.
METAR KDSV 262254Z AUTO 32009KT 8SM OVC040 M11/M14 A3009 RMK AO2 SNE47 SLPNO P0000 T11111144

More Conditions Fewer Conditions

10-Day Weather Forecast

Almanac

Astronomy

Feb. 26, 2015 Rise Set
Actual Time
Civil Twilight
Nautical Twilight
Astronomical Twilight
Moon
Length of Visible Light
Length of Day
Tomorrow will be .
, % of the Moon is Illuminated

Today's Extremes

State Highs State Lows

Community

WunderPhotos

Upload Photos

1,800,529 photos uploaded!

WunderBlogs® & News

Nearby

Air Quality

  Air Quality AQ Index Pollutant
Not available.

Snow Depth

Station Depth Elevation

Earthquake Activity

City Distance Mag. Time & Date
Minimum magnitude displayed is 2.5.

Coastal Water Temperatures

Place Temperature

Nearby Weather Stations